Terminal Aerodrome Forecast
Issued by NWS Blacksburg, VA

Current Version | Previous Version | Graphics & Text | Print | Product List | Glossary On
Versions: 1 2 3 4 5 6 7 8 9 10 11 12 13 14 15 16 17 18 19 20 21 22 23 24 25 26 27 28 29 30 31 32 33 34 35 36 37 38 39 40 41 42 43 44 45 46 47 48
000
FTUS41 KRNK 231051 AAA
TAFBLF
TAF AMD
KBLF 231051Z 2311/2406 26007KT P6SM VCTS SCT004 BKN070CB
      TEMPO 2311/2313 5SM SHRA BR BKN004
     FM231300 25005KT P6SM BKN045
     FM231600 25008KT P6SM BKN090
     FM232100 25009KT P6SM VCTS SCT030CB BKN060
     FM240300 26005KT P6SM VCTS SCT040CB BKN120=

USA.gov is the U.S. government's official web portal to all federal, state and local government web resources and services.